Time;durP1;ratioP1;P1;durP2;ratioP2;P2;SDS_P1;SDS_P2;PMS_P1;PMS_P2;Temp;Humidity;BMP_temperature;BMP_pressure;BME280_temperature;BME280_humidity;BME280_pressure;Samples;Min_cycle;Max_cycle;Signal;HPM_P1;HPM_P2
2022/07/18 00:02:55;;;;;;;3.03;1.27;;;16.60;99.90;;;;;;12516986;28;20560;-37
2022/07/18 00:08:57;;;;;;;2.17;0.98;;;16.60;99.90;;;;;;12506552;28;20056;-33
2022/07/18 00:14:59;;;;;;;2.95;1.10;;;16.60;99.90;;;;;;12486823;28;20164;-33
2022/07/18 00:21:01;;;;;;;6.00;1.00;;;16.60;99.90;;;;;;12496999;28;20525;-33
2022/07/18 00:27:04;;;;;;;3.47;1.08;;;16.40;99.90;;;;;;12504009;28;20053;-38
2022/07/18 00:33:06;;;;;;;4.63;1.02;;;16.10;99.90;;;;;;12513362;28;20048;-37
2022/07/18 00:39:08;;;;;;;2.22;0.93;;;16.00;99.90;;;;;;12502388;28;20060;-33
2022/07/18 00:45:10;;;;;;;4.88;1.10;;;15.90;99.90;;;;;;12492235;28;20057;-33
2022/07/18 00:51:12;;;;;;;1.95;0.90;;;15.90;99.90;;;;;;12501992;28;20045;-37
2022/07/18 00:57:14;;;;;;;4.82;1.40;;;15.80;99.90;;;;;;12514095;28;20074;-37
2022/07/18 01:03:15;;;;;;;2.83;0.98;;;15.90;99.90;;;;;;12515855;28;20049;-37
2022/07/18 01:09:18;;;;;;;3.50;1.13;;;15.90;99.90;;;;;;12489611;28;20166;-38
2022/07/18 01:15:20;;;;;;;2.40;1.20;;;15.90;99.90;;;;;;12501845;28;20382;-33
2022/07/18 01:21:22;;;;;;;3.47;1.05;;;15.90;99.90;;;;;;12508824;28;20050;-33
2022/07/18 01:27:25;;;;;;;3.95;1.10;;;15.90;99.90;;;;;;12506659;28;20049;-33
2022/07/18 01:33:26;;;;;;;1.98;0.85;;;15.90;99.90;;;;;;12502859;28;20403;-33
2022/07/18 01:39:28;;;;;;;3.92;1.10;;;15.80;99.90;;;;;;12502313;28;20139;-33
2022/07/18 01:45:30;;;;;;;3.20;1.10;;;15.80;99.90;;;;;;12487659;28;20496;-33
2022/07/18 01:51:32;;;;;;;3.65;1.10;;;15.70;99.90;;;;;;12501586;28;20049;-37
2022/07/18 01:57:34;;;;;;;3.47;1.00;;;15.70;99.90;;;;;;12503707;28;20084;-36
2022/07/18 02:03:36;;;;;;;3.65;1.20;;;15.60;99.90;;;;;;12496430;28;20144;-33
2022/07/18 02:09:39;;;;;;;5.90;1.10;;;15.60;99.90;;;;;;12515836;28;20503;-33
2022/07/18 02:15:40;;;;;;;2.67;1.10;;;15.50;99.90;;;;;;12507991;28;20492;-33
2022/07/18 02:21:42;;;;;;;4.63;1.25;;;15.50;99.90;;;;;;12512137;28;20049;-37
2022/07/18 02:27:44;;;;;;;4.65;1.20;;;15.40;99.90;;;;;;12498741;28;20041;-36
2022/07/18 02:33:46;;;;;;;5.70;1.30;;;15.30;99.90;;;;;;12494118;28;20057;-33
2022/07/18 02:39:47;;;;;;;4.05;1.40;;;15.30;99.90;;;;;;12497359;28;20406;-38
2022/07/18 02:45:49;;;;;;;5.18;1.27;;;15.20;99.90;;;;;;12491929;28;20109;-34
2022/07/18 02:51:51;;;;;;;3.20;1.15;;;15.10;99.90;;;;;;12508817;28;20044;-34
2022/07/18 02:57:53;;;;;;;4.07;1.20;;;15.10;99.90;;;;;;12490507;28;20098;-33
2022/07/18 03:03:57;;;;;;;2.67;1.17;;;15.10;99.90;;;;;;12493298;28;20045;-33
2022/07/18 03:09:59;;;;;;;7.75;1.52;;;15.10;99.90;;;;;;12492179;28;20064;-33
2022/07/18 03:16:01;;;;;;;3.92;1.27;;;15.10;99.90;;;;;;12512055;28;20754;-33
2022/07/18 03:22:04;;;;;;;3.78;1.15;;;15.00;99.90;;;;;;12496982;28;20133;-33
2022/07/18 03:28:06;;;;;;;1.90;1.10;;;15.00;99.90;;;;;;12498075;28;20115;-33
2022/07/18 03:34:07;;;;;;;2.97;1.02;;;15.00;99.90;;;;;;12490509;28;20050;-37
2022/07/18 03:40:11;;;;;;;2.53;1.00;;;14.90;99.90;;;;;;12507947;28;20427;-38
2022/07/18 03:46:13;;;;;;;2.53;1.10;;;14.90;99.90;;;;;;12477800;28;20056;-33
2022/07/18 03:52:15;;;;;;;4.45;1.20;;;14.80;99.90;;;;;;12510347;28;20052;-33
2022/07/18 03:58:16;;;;;;;4.32;1.30;;;14.80;99.90;;;;;;12495537;28;20608;-33
2022/07/18 04:04:18;;;;;;;4.75;1.30;;;14.80;99.90;;;;;;12497024;28;20241;-38
2022/07/18 04:10:20;;;;;;;4.00;1.52;;;14.80;99.90;;;;;;12508375;28;20401;-34
2022/07/18 04:16:22;;;;;;;3.75;1.35;;;14.80;99.90;;;;;;12504742;28;20094;-38
2022/07/18 04:22:24;;;;;;;7.72;1.70;;;14.80;99.90;;;;;;12490325;28;20061;-34
2022/07/18 04:28:26;;;;;;;6.28;1.50;;;14.80;99.90;;;;;;12502331;28;20161;-38
2022/07/18 04:34:28;;;;;;;2.95;1.58;;;14.80;99.90;;;;;;12507662;28;20136;-33
2022/07/18 04:40:30;;;;;;;5.35;1.65;;;14.80;99.90;;;;;;12501372;28;20401;-33
2022/07/18 04:46:31;;;;;;;3.08;1.40;;;14.80;99.90;;;;;;12493479;28;20447;-33
2022/07/18 04:52:43;;;;;;;3.47;1.50;;;14.80;99.90;;;;;;12505946;28;20053;-33
2022/07/18 04:58:45;;;;;;;4.78;1.70;;;15.00;99.90;;;;;;12508570;28;20038;-33
2022/07/18 05:04:47;;;;;;;9.60;1.70;;;14.90;99.90;;;;;;12511846;28;20044;-37
2022/07/18 05:10:49;;;;;;;5.63;1.90;;;15.00;99.90;;;;;;12496279;28;20057;-38
2022/07/18 05:16:50;;;;;;;3.45;1.50;;;15.10;99.90;;;;;;12507781;28;20437;-34
2022/07/18 05:22:53;;;;;;;6.65;1.88;;;15.10;99.90;;;;;;12509938;28;20089;-37
2022/07/18 05:28:55;;;;;;;3.22;1.73;;;15.20;99.90;;;;;;12518818;28;20510;-34
2022/07/18 05:34:57;;;;;;;6.15;1.52;;;15.20;99.90;;;;;;12539875;28;20258;-38
2022/07/18 05:41:00;;;;;;;4.40;1.65;;;15.30;99.90;;;;;;12504978;28;20096;-38
2022/07/18 05:47:02;;;;;;;5.37;1.40;;;15.40;99.90;;;;;;12495505;28;20567;-39
2022/07/18 05:53:04;;;;;;;3.67;1.60;;;15.50;99.90;;;;;;12517636;28;20299;-33
2022/07/18 05:59:06;;;;;;;5.95;1.83;;;15.60;99.90;;;;;;12529601;28;20140;-33
2022/07/18 06:05:09;;;;;;;4.18;1.50;;;15.60;99.90;;;;;;12529654;28;20072;-37
2022/07/18 06:11:24;;;;;;;3.53;1.67;;;15.70;99.90;;;;;;12530912;28;20060;-34
2022/07/18 06:17:29;;;;;;;4.32;1.55;;;15.80;99.90;;;;;;12523567;28;20047;-35
2022/07/18 06:23:32;;;;;;;4.30;1.63;;;15.80;99.90;;;;;;12521884;28;20079;-38
2022/07/18 06:29:33;;;;;;;5.00;1.55;;;16.00;99.90;;;;;;12512279;28;20124;-34
2022/07/18 06:35:35;;;;;;;5.07;1.45;;;16.10;99.90;;;;;;12526600;28;20037;-38
2022/07/18 06:41:39;;;;;;;3.97;1.42;;;16.30;99.90;;;;;;12506761;28;20085;-34
2022/07/18 06:47:42;;;;;;;6.22;1.35;;;16.40;99.90;;;;;;12510693;28;20049;-34
2022/07/18 06:53:44;;;;;;;6.38;1.80;;;16.50;99.90;;;;;;12513032;28;20052;-38
2022/07/18 06:59:46;;;;;;;5.22;1.50;;;16.60;99.90;;;;;;12523508;28;20075;-34
2022/07/18 07:05:52;;;;;;;6.32;1.80;;;16.80;99.90;;;;;;12510759;28;20059;-37
2022/07/18 07:11:53;;;;;;;6.68;1.30;;;17.10;99.90;;;;;;12529736;28;20152;-33
2022/07/18 07:17:55;;;;;;;10.15;1.58;;;17.30;99.90;;;;;;12523662;28;20080;-34
2022/07/18 07:23:57;;;;;;;4.55;1.20;;;17.50;99.90;;;;;;12514174;28;20546;-39
2022/07/18 07:29:59;;;;;;;5.18;1.27;;;17.80;99.90;;;;;;12520963;28;20582;-34
2022/07/18 07:36:01;;;;;;;8.23;1.27;;;18.10;99.90;;;;;;12525301;28;20042;-38
2022/07/18 07:42:03;;;;;;;6.18;1.40;;;18.50;99.90;;;;;;12514768;28;20098;-38
2022/07/18 07:48:07;;;;;;;5.50;1.57;;;18.70;99.90;;;;;;12518863;28;20074;-34
2022/07/18 07:54:08;;;;;;;6.95;1.45;;;18.80;99.90;;;;;;12520838;28;20466;-34
2022/07/18 08:00:10;;;;;;;12.13;1.52;;;19.10;99.90;;;;;;12523388;28;20099;-33
2022/07/18 08:06:12;;;;;;;10.48;1.52;;;19.30;99.90;;;;;;12524791;28;20152;-37
2022/07/18 08:12:14;;;;;;;6.00;1.35;;;19.40;99.90;;;;;;12530474;28;20072;-39
2022/07/18 08:18:16;;;;;;;7.18;1.70;;;19.50;99.90;;;;;;12513122;28;20048;-34
2022/07/18 08:24:18;;;;;;;4.88;1.27;;;19.90;99.90;;;;;;12513674;28;20053;-34
2022/07/18 08:30:20;;;;;;;7.40;1.10;;;20.10;99.90;;;;;;12526115;28;20106;-34
2022/07/18 08:36:22;;;;;;;3.50;0.90;;;20.70;99.90;;;;;;12521260;28;20050;-34
2022/07/18 08:42:26;;;;;;;4.75;1.05;;;21.60;99.90;;;;;;12521559;28;20492;-34
2022/07/18 08:48:28;;;;;;;3.83;1.02;;;22.00;99.90;;;;;;12518087;28;20474;-34
2022/07/18 08:54:30;;;;;;;3.42;0.90;;;22.60;99.90;;;;;;12526498;28;20492;-38
2022/07/18 09:00:34;;;;;;;4.35;0.98;;;22.40;99.90;;;;;;12536610;28;20140;-38
2022/07/18 09:06:49;;;;;;;3.50;0.80;;;22.90;99.90;;;;;;12533264;28;20057;-39
2022/07/18 09:12:57;;;;;;;3.03;0.88;;;23.20;99.90;;;;;;12536232;28;20045;-34
2022/07/18 09:19:06;;;;;;;12.37;1.20;;;23.20;99.90;;;;;;12532392;28;20047;-38
2022/07/18 09:25:14;;;;;;;5.45;1.15;;;23.70;99.90;;;;;;12528986;28;20405;-38
2022/07/18 09:31:19;;;;;;;7.35;1.05;;;23.70;99.90;;;;;;12524713;28;20045;-38
2022/07/18 09:37:21;;;;;;;4.40;0.95;;;24.00;99.90;;;;;;12535348;28;20063;-38
2022/07/18 09:43:24;;;;;;;2.93;0.97;;;23.80;99.90;;;;;;12528609;28;20037;-34
2022/07/18 09:49:33;;;;;;;;;;;24.00;99.90;;;;;;12529901;28;20300;-34
2022/07/18 09:55:46;;;;;;;10.68;0.93;;;24.30;99.90;;;;;;12531588;28;19928;-34
2022/07/18 10:01:48;;;;;;;3.15;1.00;;;24.90;99.90;;;;;;12513918;28;20135;-34
2022/07/18 10:07:51;;;;;;;5.32;1.00;;;25.20;99.90;;;;;;12526088;28;20040;-38
2022/07/18 10:13:53;;;;;;;4.78;1.10;;;25.00;99.90;;;;;;12513566;28;20501;-34
2022/07/18 10:19:55;;;;;;;5.35;1.42;;;25.10;99.90;;;;;;12521746;28;20094;-34
2022/07/18 10:26:16;;;;;;;7.93;1.40;;;25.30;99.90;;;;;;12530213;28;20037;-38
2022/07/18 10:32:33;;;;;;;4.90;1.60;;;25.80;99.90;;;;;;12527292;28;20412;-39
2022/07/18 10:38:35;;;;;;;6.22;1.48;;;26.40;99.90;;;;;;12511285;28;20139;-35
2022/07/18 10:44:40;;;;;;;2.90;1.33;;;26.90;99.90;;;;;;12534469;28;20523;-39
2022/07/18 10:51:01;;;;;;;5.72;1.35;;;27.30;99.90;;;;;;12532989;28;20057;-38
2022/07/18 10:57:04;;;;;;;2.97;1.23;;;27.60;99.90;;;;;;12532207;28;20179;-38
2022/07/18 11:03:08;;;;;;;4.28;1.23;;;27.70;99.90;;;;;;12529746;28;20187;-35
2022/07/18 11:09:31;;;;;;;3.55;1.30;;;27.70;99.90;;;;;;12528034;28;20509;-34
2022/07/18 11:15:56;;;;;;;3.38;1.30;;;28.30;99.90;;;;;;12533071;28;20045;-35
2022/07/18 11:21:59;;;;;;;5.88;1.35;;;28.80;99.90;;;;;;12534714;28;20450;-39
2022/07/18 11:28:06;;;;;;;8.13;2.20;;;28.70;99.90;;;;;;12546004;28;20121;-34
2022/07/18 11:34:08;;;;;;;2.88;1.45;;;28.90;99.90;;;;;;12522288;28;20093;-38
2022/07/18 11:40:11;;;;;;;5.13;1.73;;;28.90;99.90;;;;;;12546177;28;20041;-40
2022/07/18 11:46:16;;;;;;;6.72;1.70;;;29.20;99.90;;;;;;12541916;28;20050;-39
2022/07/18 11:52:18;;;;;;;5.68;1.63;;;29.40;99.90;;;;;;12531736;28;20528;-38
2022/07/18 11:58:21;;;;;;;3.33;1.40;;;29.40;99.90;;;;;;12532048;28;20497;-38
2022/07/18 12:04:24;;;;;;;3.28;1.40;;;29.50;99.90;;;;;;12527368;28;20071;-35
2022/07/18 12:10:26;;;;;;;3.40;1.48;;;29.60;99.90;;;;;;12539283;28;20446;-38
2022/07/18 12:16:33;;;;;;;3.63;1.40;;;29.80;99.90;;;;;;12526585;28;20501;-39
2022/07/18 12:22:35;;;;;;;4.28;1.55;;;29.50;99.90;;;;;;12546930;28;20477;-34
2022/07/18 12:28:36;;;;;;;2.70;1.50;;;29.40;97.70;;;;;;12545657;28;20441;-36
2022/07/18 12:34:54;;;;;;;4.00;1.42;;;29.40;98.40;;;;;;12532182;28;20048;-35
2022/07/18 12:40:59;;;;;;;11.48;1.88;;;29.30;98.50;;;;;;12538427;28;20172;-34
2022/07/18 12:47:02;;;;;;;4.78;1.45;;;29.50;98.70;;;;;;12550915;28;20106;-34
2022/07/18 12:53:04;;;;;;;;;;;29.00;98.50;;;;;;12537452;28;21370;-34
2022/07/18 12:59:06;;;;;;;5.47;1.50;;;28.70;98.20;;;;;;12545870;28;20494;-39
2022/07/18 13:05:08;;;;;;;2.53;1.27;;;28.90;99.60;;;;;;12536901;28;20147;-34
2022/07/18 13:11:10;;;;;;;2.28;1.10;;;29.00;99.90;;;;;;12530496;28;20044;-39
2022/07/18 13:17:13;;;;;;;3.78;1.30;;;28.90;99.90;;;;;;12554602;28;20048;-38
2022/07/18 13:23:15;;;;;;;;;;;29.50;97.80;;;;;;12538341;28;20045;-35
2022/07/18 13:29:17;;;;;;;3.10;1.20;;;29.30;98.80;;;;;;12545687;28;20070;-34
2022/07/18 13:35:20;;;;;;;6.28;1.40;;;29.00;99.90;;;;;;12544430;28;20535;-35
2022/07/18 13:41:22;;;;;;;2.80;1.20;;;29.30;99.90;;;;;;12517627;28;20132;-35
2022/07/18 13:47:24;;;;;;;;;;;29.70;99.90;;;;;;12541775;28;20048;-35
2022/07/18 13:53:26;;;;;;;5.38;1.50;;;29.70;99.90;;;;;;12531528;28;20385;-39
2022/07/18 13:59:28;;;;;;;3.17;1.13;;;29.80;99.40;;;;;;12539497;28;20068;-34
2022/07/18 14:05:29;;;;;;;3.85;1.00;;;29.80;99.30;;;;;;12533709;28;20053;-39
2022/07/18 14:11:34;;;;;;;6.25;1.40;;;30.00;98.30;;;;;;12528242;28;20057;-34
2022/07/18 14:17:36;;;;;;;2.38;1.17;;;30.00;98.30;;;;;;12537355;28;20153;-34
2022/07/18 14:23:38;;;;;;;3.00;1.20;;;30.10;99.90;;;;;;12532441;28;20076;-39
2022/07/18 14:29:40;;;;;;;3.63;1.35;;;30.10;99.90;;;;;;12521655;28;20098;-35
2022/07/18 14:35:41;;;;;;;4.32;1.10;;;30.30;99.70;;;;;;12539014;28;20142;-35
2022/07/18 14:41:45;;;;;;;6.25;1.35;;;30.40;99.90;;;;;;12538115;28;20106;-38
2022/07/18 14:47:47;;;;;;;2.45;1.30;;;30.70;99.90;;;;;;12539358;28;20055;-35
2022/07/18 14:53:49;;;;;;;4.22;1.50;;;30.70;97.80;;;;;;12539247;28;20040;-39
2022/07/18 14:59:50;;;;;;;3.20;1.25;;;30.70;95.60;;;;;;12534223;28;20049;-34
2022/07/18 15:05:52;;;;;;;4.25;1.48;;;30.80;96.50;;;;;;12530577;28;20486;-39
2022/07/18 15:11:54;;;;;;;2.75;1.20;;;31.10;98.20;;;;;;12536993;28;20132;-40
2022/07/18 15:17:56;;;;;;;4.35;1.30;;;30.70;99.90;;;;;;12539166;28;20489;-35
2022/07/18 15:23:58;;;;;;;;;;;30.30;99.90;;;;;;12526885;28;20068;-39
2022/07/18 15:30:00;;;;;;;2.17;1.17;;;30.60;97.00;;;;;;12532738;28;19936;-34
2022/07/18 15:36:22;;;;;;;;;;;30.80;95.30;;;;;;12538119;28;20561;-35
2022/07/18 15:42:24;;;;;;;4.80;1.30;;;30.70;97.00;;;;;;12527823;28;19974;-34
2022/07/18 15:48:26;;;;;;;4.43;1.45;;;30.70;99.90;;;;;;12536028;28;20048;-39
2022/07/18 15:54:29;;;;;;;3.47;1.40;;;30.90;97.10;;;;;;12537594;28;20041;-38
2022/07/18 16:00:31;;;;;;;3.53;1.48;;;31.10;95.50;;;;;;12523214;28;20481;-38
2022/07/18 16:06:33;;;;;;;;;;;31.10;94.90;;;;;;12527945;28;20049;-38
2022/07/18 16:12:36;;;;;;;3.47;1.30;;;30.70;95.30;;;;;;12521798;28;19936;-34
2022/07/18 16:18:41;;;;;;;3.38;1.33;;;31.00;96.00;;;;;;12532092;28;20064;-34
2022/07/18 16:24:44;;;;;;;;;;;31.30;97.30;;;;;;12540960;28;20131;-35
2022/07/18 16:30:46;;;;;;;7.57;1.58;;;31.40;96.10;;;;;;12526629;28;20031;-35
2022/07/18 16:36:48;;;;;;;6.97;1.48;;;31.40;95.70;;;;;;12504554;28;20098;-35
2022/07/18 16:42:51;;;;;;;4.05;1.40;;;31.40;94.50;;;;;;12537937;28;20091;-35
2022/07/18 16:48:53;;;;;;;2.55;1.50;;;31.50;99.90;;;;;;12527380;28;20511;-38
2022/07/18 16:54:56;;;;;;;5.97;1.52;;;31.40;97.60;;;;;;12535821;28;20550;-38
2022/07/18 17:00:59;;;;;;;4.72;1.70;;;31.50;99.90;;;;;;12522063;28;20559;-39
2022/07/18 17:07:01;;;;;;;2.95;1.30;;;31.80;99.90;;;;;;12529354;28;20429;-35
2022/07/18 17:13:03;;;;;;;5.15;1.60;;;32.00;96.80;;;;;;12535868;28;20092;-39
2022/07/18 17:19:05;;;;;;;4.15;1.30;;;31.80;99.90;;;;;;12541099;28;20097;-34
2022/07/18 17:25:08;;;;;;;4.47;1.45;;;31.90;99.90;;;;;;12552073;28;20049;-38
2022/07/18 17:31:10;;;;;;;4.70;1.45;;;32.10;99.90;;;;;;12557349;28;20454;-34
2022/07/18 17:37:16;;;;;;;4.13;1.40;;;31.90;97.00;;;;;;12521336;28;20049;-34
2022/07/18 17:43:18;;;;;;;3.10;1.50;;;31.90;99.90;;;;;;12526949;28;20046;-35
2022/07/18 17:49:21;;;;;;;13.60;8.43;;;32.10;99.50;;;;;;12539786;28;20137;-34
2022/07/18 17:55:23;;;;;;;4.90;1.77;;;32.00;99.90;;;;;;12533347;28;20504;-35
2022/07/18 18:01:24;;;;;;;2.33;1.35;;;32.60;99.90;;;;;;12541312;28;20049;-35
2022/07/18 18:07:26;;;;;;;3.85;1.48;;;32.80;99.90;;;;;;12543322;28;20065;-39
2022/07/18 18:13:28;;;;;;;3.33;1.70;;;32.90;99.90;;;;;;12537356;28;20045;-39
2022/07/18 18:19:30;;;;;;;;;;;32.50;99.90;;;;;;12539490;28;20394;-38
2022/07/18 18:25:32;;;;;;;2.42;1.25;;;31.40;99.90;;;;;;12541059;28;19920;-34
2022/07/18 18:31:34;;;;;;;5.00;1.35;;;30.50;99.90;;;;;;12515714;28;20054;-38
2022/07/18 18:37:37;;;;;;;5.97;1.70;;;29.90;99.90;;;;;;12544681;28;20084;-39
2022/07/18 18:43:39;;;;;;;;;;;29.50;99.90;;;;;;12529190;28;20119;-38
2022/07/18 18:49:40;;;;;;;4.65;1.67;;;29.10;99.90;;;;;;12529406;28;19925;-39
2022/07/18 18:55:42;;;;;;;4.07;1.70;;;28.80;99.90;;;;;;12536575;28;20044;-34
2022/07/18 19:01:47;;;;;;;3.77;1.63;;;28.50;99.90;;;;;;12536134;28;20148;-39
2022/07/18 19:07:50;;;;;;;4.03;1.60;;;28.30;99.90;;;;;;12536877;28;20659;-38
2022/07/18 19:13:52;;;;;;;2.97;1.50;;;28.10;99.90;;;;;;12531703;28;20052;-39
2022/07/18 19:19:54;;;;;;;4.15;1.50;;;27.90;99.90;;;;;;12542870;28;20041;-39
2022/07/18 19:25:56;;;;;;;3.97;1.47;;;27.80;99.90;;;;;;12535292;28;20269;-38
2022/07/18 19:31:58;;;;;;;5.40;1.63;;;27.50;99.90;;;;;;12535783;28;20037;-38
2022/07/18 19:38:00;;;;;;;3.92;1.58;;;27.20;99.90;;;;;;12528189;28;20072;-39
2022/07/18 19:44:04;;;;;;;2.63;1.52;;;26.80;99.90;;;;;;12531515;28;20041;-34
2022/07/18 19:50:07;;;;;;;3.67;1.25;;;26.50;99.90;;;;;;12529995;28;20045;-38
2022/07/18 19:56:18;;;;;;;10.68;1.60;;;26.20;99.90;;;;;;12531839;28;20052;-39
2022/07/18 20:02:20;;;;;;;5.22;1.95;;;25.90;99.90;;;;;;12522736;28;20082;-34
2022/07/18 20:08:21;;;;;;;3.93;1.43;;;25.60;99.90;;;;;;12523229;28;20106;-34
2022/07/18 20:14:24;;;;;;;2.80;1.70;;;25.30;99.90;;;;;;12534977;28;20179;-34
2022/07/18 20:20:28;;;;;;;3.30;1.60;;;25.10;99.90;;;;;;12512905;28;20037;-34
2022/07/18 20:26:30;;;;;;;5.03;1.67;;;25.00;99.90;;;;;;12520053;28;20703;-39
2022/07/18 20:32:31;;;;;;;3.75;1.50;;;24.80;99.90;;;;;;12519680;28;20045;-34
2022/07/18 20:38:34;;;;;;;3.45;1.58;;;24.60;99.90;;;;;;12533145;28;20177;-34
2022/07/18 20:44:35;;;;;;;4.57;1.70;;;24.40;99.90;;;;;;12534087;28;20485;-38
2022/07/18 20:50:38;;;;;;;2.97;1.50;;;24.20;99.90;;;;;;12548506;28;20132;-38
2022/07/18 20:56:39;;;;;;;4.53;1.77;;;24.10;99.90;;;;;;12553104;28;20048;-34
2022/07/18 21:02:41;;;;;;;3.15;1.60;;;23.90;99.90;;;;;;12538517;28;20057;-34
2022/07/18 21:08:43;;;;;;;4.00;1.50;;;23.80;99.90;;;;;;12545182;28;20405;-38
2022/07/18 21:21:13;;;;;;;2.90;1.60;;;23.60;99.90;;;;;;12550984;28;20056;-38
2022/07/18 21:27:19;;;;;;;3.17;1.50;;;23.50;99.90;;;;;;12532201;28;20223;-34
2022/07/18 21:33:23;;;;;;;3.65;1.70;;;23.30;99.90;;;;;;12540052;28;20599;-38
2022/07/18 21:39:24;;;;;;;4.95;1.55;;;23.20;99.90;;;;;;12536379;28;20098;-38
2022/07/18 21:45:27;;;;;;;2.63;1.30;;;23.20;99.90;;;;;;12537050;28;20049;-38
2022/07/18 21:51:28;;;;;;;3.22;1.83;;;23.10;99.90;;;;;;12553556;28;20516;-37
2022/07/18 21:57:31;;;;;;;3.53;1.50;;;23.00;99.90;;;;;;12539171;28;20051;-39
2022/07/18 22:03:33;;;;;;;3.05;1.65;;;22.90;99.90;;;;;;12538864;28;20053;-34
2022/07/18 22:09:35;;;;;;;4.00;1.80;;;22.70;99.90;;;;;;12537519;28;20193;-33
2022/07/18 22:15:36;;;;;;;3.53;1.58;;;22.60;99.90;;;;;;12537343;28;20045;-38
2022/07/18 22:21:40;;;;;;;3.88;1.40;;;22.50;99.90;;;;;;12524137;28;20481;-38
2022/07/18 22:27:43;;;;;;;2.78;1.45;;;22.50;99.90;;;;;;12530510;28;20087;-37
2022/07/18 22:33:44;;;;;;;3.73;1.40;;;22.40;99.90;;;;;;12539845;28;20050;-37
2022/07/18 22:39:46;;;;;;;4.38;1.73;;;22.30;99.90;;;;;;12515191;28;20386;-34
2022/07/18 22:45:48;;;;;;;3.20;1.50;;;22.20;99.90;;;;;;12537704;28;20037;-34
2022/07/18 22:51:50;;;;;;;4.00;1.40;;;22.20;99.90;;;;;;12530298;28;20484;-38
2022/07/18 22:57:52;;;;;;;3.30;1.70;;;22.10;99.90;;;;;;12537628;28;20118;-38
2022/07/18 23:03:53;;;;;;;4.35;1.50;;;21.90;99.90;;;;;;12508989;28;20041;-34
2022/07/18 23:09:55;;;;;;;7.45;1.60;;;21.90;99.90;;;;;;12517154;28;20161;-34
2022/07/18 23:15:57;;;;;;;3.67;1.95;;;21.80;99.90;;;;;;12530610;28;20611;-38
2022/07/18 23:21:59;;;;;;;5.07;1.60;;;21.80;99.90;;;;;;12519614;28;20079;-34
2022/07/18 23:28:01;;;;;;;4.88;1.55;;;21.80;99.90;;;;;;12534918;28;20044;-34
2022/07/18 23:34:02;;;;;;;3.47;1.67;;;21.60;99.90;;;;;;12542489;28;20049;-34
2022/07/18 23:40:07;;;;;;;3.47;1.45;;;21.50;99.90;;;;;;12535499;28;20477;-39
2022/07/18 23:46:08;;;;;;;5.70;1.77;;;21.40;99.90;;;;;;12504554;28;20098;-34
2022/07/18 23:52:13;;;;;;;2.83;1.75;;;21.30;99.90;;;;;;12521510;28;20049;-34
2022/07/18 23:58:16;;;;;;;3.50;1.55;;;21.20;99.90;;;;;;12522926;28;20447;-34
